Login

Denda
1 activity; - Last training unit 05/03/2016
05/03/2016 Show to everybody Pineta Ravenna 100.63 128 04:47:05 21.03 Km\h Scapin Oraklo 2012
20/02/2016 Show to everybody Ranchio Bicio Trail 75.38 1193 04:04:33 18.49 Km\h Scapin Oraklo 2012
13/02/2016 Show to everybody 2 Colli e 1/2 85.63 1119 04:05:31 20.93 Km\h Scapin Oraklo 2012
06/02/2016 Show to everybody Talammello x3 26.11 1284 02:53:43 9.02 Km\h YT Capra CF Pro 2014
23/01/2016 Show to everybody Talamello x3 26.11 1477 03:02:42 8.58 Km\h YT Capra CF Pro 2014
10/01/2016 Show to everybody Rullato 79.27 1032 04:10:21 19 Km\h Scapin Oraklo 2012
31/12/2015 Show to everybody Monte Finocchio 89.6 1037 04:22:34 20.47 Km\h Scapin Oraklo 2012
27/12/2015 Show to everybody Nasseto da Fonte Abate 30.26 863 02:45:07 11 Km\h Scapin Oraklo 2012
24/12/2015 Show to everybody Santa Lucia sopra alla Nebbia 48.65 701 02:54:45 16.7 Km\h Scapin Oraklo 2012
19/12/2015 Show to everybody Epiche colline 66.21 1155 04:14:25 15.61 Km\h Scapin Oraklo 2012
13/12/2015 Show to everybody Quarto 14.18 679 01:36:34 8.81 Km\h Scapin Oraklo 2012
12/12/2015 Show to everybody Cesena 49.03 549 02:40:25 18.34 Km\h Scapin Oraklo 2012
08/12/2015 Show to everybody Allenamento n. 56 22.79 515 01:42:33 13.34 Km\h YT Capra CF Pro 2014
06/12/2015 Show to everybody 2x Quarto 15.34 792 01:53:05 8.14 Km\h YT Capra CF Pro 2014
05/12/2015 Show to everybody Allenamento n. 54 25.3 606 01:54:07 13.3 Km\h YT Capra CF Pro 2014
10/11/2015 Show to everybody Allenamento n. 53 48.41 425 02:22:37 20.37 Km\h Scapin Oraklo 2012
07/11/2015 Show to everybody Misto Funghi Bertinoro 34.77 783 02:18:59 15.01 Km\h Scapin Oraklo 2012
01/11/2015 Show to everybody Cavalli + Montevecchio 50.48 664 02:56:58 17.12 Km\h Scapin Oraklo 2012
24/10/2015 Show to everybody Quarto B.Park 15.55 816 01:58:59 7.84 Km\h YT Capra CF Pro 2014
17/10/2015 Show to everybody Cavalli + Monte Maggio x2 46.33 629 02:53:43 16 Km\h YT Capra CF Pro 2014
03/10/2015 Show to everybody Monte Maggio x4 28.02 640 02:06:17 13.31 Km\h YT Capra CF Pro 2014
27/09/2015 Show to everybody Corzano + Gallerie 32.59 1030 02:58:08 10.98 Km\h YT Capra CF Pro 2014
26/09/2015 Show to everybody MonteMaggio x2 19.52 398 01:15:57 15.42 Km\h YT Capra CF Pro 2014
22/09/2015 Show to everybody Bertinoro 42.9 582 02:43:47 15.72 Km\h Scapin Oraklo 2012
15/09/2015 Show to everybody Enduro Bertinoro 33.84 570 02:13:12 15.24 Km\h Scapin Oraklo 2012
13/09/2015 Show to everybody Allenamento n. 43 61.76 781 03:16:59 18.81 Km\h Scapin Oraklo 2012
03/09/2015 Show to everybody Dopo la Pioggia 52.53 632 02:39:55 19.71 Km\h Scapin Oraklo 2012
30/08/2015 Show to everybody Strada San Zeno 66.58 915 03:30:34 18.97 Km\h YT Capra CF Pro 2014
26/08/2015 Show to everybody Notturna Settecrociari 44.36 651 02:42:23 16.39 Km\h Scapin Oraklo 2012
19/08/2015 Show to everybody Colline Bertinoresi 49.48 782 02:36:42 18.94 Km\h Scapin Oraklo 2012
13/08/2015 Show to everybody Notturna San Vittore 53.17 758 03:06:24 17.11 Km\h Scapin Oraklo 2012
06/08/2015 Show to everybody Dalla Nadia 14.04 49 00:36:54 22.83 Km\h Scapin Oraklo 2012
01/08/2015 Show to everybody Quarto 16.1 808 01:58:57 8.12 Km\h YT Capra CF Pro 2014
30/07/2015 Show to everybody Notturna Case Finali 56.18 570 03:09:58 17.74 Km\h Scapin Oraklo 2012
24/07/2015 Show to everybody Notturna Borello 60.59 618 03:17:51 18.37 Km\h Scapin Oraklo 2012
15/07/2015 Show to everybody Notturna MTB Cesena - Collinello 43.67 563 02:28:01 17.7 Km\h YT Capra CF Pro 2014
11/07/2015 Show to everybody Nasseto lungo 29.85 870 02:41:57 11.06 Km\h YT Capra CF Pro 2014
02/07/2015 Show to everybody NOTTURNA BAR SNOOPY 37.97 481 02:19:26 16.34 Km\h YT Capra CF Pro 2014
28/06/2015 Show to everybody Domenica ELISAM 77.51 793 03:48:34 20.35 Km\h YT Capra CF Pro 2014
27/06/2015 Show to everybody Becca + Gallerie 18.76 453 01:29:20 12.6 Km\h YT Capra CF Pro 2014
23/06/2015 Show to everybody Notturna Gallerie 16.54 491 01:22:50 11.98 Km\h YT Capra CF Pro 2014
20/06/2015 Show to everybody Corzano + Gallerie 26.19 1000 02:34:09 10.2 Km\h YT Capra CF Pro 2014
18/06/2015 Show to everybody Notte Magica Cesena 47.84 645 02:54:52 16.42 Km\h YT Capra CF Pro 2014
14/06/2015 Show to everybody Nasseto da cimitero di San Piero 31.36 782 02:38:55 11.84 Km\h YT Capra CF Pro 2014
13/06/2015 Show to everybody le 3 PS di Pieve Santo Stefano 28.55 894 02:30:30 11.38 Km\h YT Capra CF Pro 2014
06/06/2015 Show to everybody Chiardovo + Becca + Gallerie 43.36 1513 03:58:56 10.89 Km\h YT Capra CF Pro 2014
02/06/2015 Show to everybody Nasseto da parcheggio Scuola 26.18 729 02:17:56 11.39 Km\h YT Capra CF Pro 2014
30/05/2015 Show to everybody Pistino, Capollare [Premilcuore] 19.66 864 02:03:08 9.58 Km\h YT Capra CF Pro 2014
28/05/2015 Show to everybody Monte Reale - > Monte Vecchio - > Cesena 53.54 553 02:41:50 19.85 Km\h YT Capra CF Pro 2014
20/05/2015 Show to everybody Borello, Monte Vecchio, Gessi 58.65 642 03:03:54 19.13 Km\h YT Capra CF Pro 2014
17/05/2015 Show to everybody Postino + Ca Pollare (Premilcuore) 20.05 857 02:04:28 9.67 Km\h YT Capra CF Pro 2014
14/05/2015 Show to everybody Colli Cesenati 50.35 519 02:44:20 18.38 Km\h YT Capra CF Pro 2014
12/05/2015 Show to everybody Colli Cesenati 46.6 580 02:42:18 17.23 Km\h YT Capra CF Pro 2014
10/05/2015 Show to everybody Coppa Italia Enduro 39.06 1528 04:00:41 9.74 Km\h YT Capra CF Pro 2014
02/05/2015 Show to everybody Santa Lucia + Cavalli 46.51 479 02:45:34 16.86 Km\h YT Capra CF Pro 2014
01/05/2015 Show to everybody Talamello 20.53 939 02:11:26 9.37 Km\h YT Capra CF Pro 2014
26/04/2015 Show to everybody Premilcuore 3 PS - Pistino + Cà Pollare + Cà Pollare 30.22 1305 03:19:37 9.08 Km\h YT Capra CF Pro 2014
22/04/2015 Show to everybody Nasseto da cimitero di San Piero 31.09 835 02:37:39 11.83 Km\h YT Capra CF Pro 2014
12/04/2015 Show to everybody Cesenatico Defaticante 52.2 202 02:36:21 20.03 Km\h YT Capra CF Pro 2014
12/04/2015 Show to everybody Quarto 50.31 1122 02:03:44 24.4 Km\h
11/04/2015 Show to everybody CH.FR + Gallerie 37.74 1058 03:24:24 11.08 Km\h YT Capra CF Pro 2014
06/04/2015 Show to everybody Colli Cesenati 46.15 698 02:56:35 15.68 Km\h YT Capra CF Pro 2014
28/03/2015 Show to everybody Becca + Carzano 43.98 1159 03:33:22 12.37 Km\h YT Capra CF Pro 2014
21/03/2015 Show to everybody Becca + Gallerie 39.98 1074 03:37:17 11.04 Km\h YT Capra CF Pro 2014
07/03/2015 Show to everybody Quarto, solo Pista Atterraggio 14.44 675 01:54:57 7.54 Km\h YT Capra CF Pro 2014
28/02/2015 Show to everybody Talamello Wolf + DH 17.21 823 01:59:07 8.67 Km\h YT Capra CF Pro 2014
21/02/2015 Show to everybody Santa Maria Nuova to Sarsina 81.95 495 03:57:09 20.73 Km\h YT Capra CF Pro 2014
14/02/2015 Show to everybody MonteCavallo + MonteVecchio 59.99 964 03:47:17 15.84 Km\h YT Capra CF Pro 2014
Training units 0
Kilometers 0 Km
Vertical gain 0 mt
Hours of riding 00:00:00
Average speed 0 Km/h
average HR 144
Points 230
Live Tracking »

Scapin Oraklo 2012 69:43:59 1241.34 Km
YT Capra CF Pro 2014 117:15:35 1578.01 Km

 
If you stop following this users you will not be able to compare your trainings with his

Now you follow this users and you can compare your trainings


MTB-Mag.com | 2012-2020 Training Camp v.1.6 rev 05